Time;durP1;ratioP1;P1;durP2;ratioP2;P2;SDS_P1;SDS_P2;PMS_P1;PMS_P2;Temp;Humidity;BMP_temperature;BMP_pressure;BME280_temperature;BME280_humidity;BME280_pressure;Samples;Min_cycle;Max_cycle;Signal;HPM_P1;HPM_P2
2022/07/21 00:00:56;;;;;;;1.38;1.13;;;;;;;;;;5055298;28;20040;-74
2022/07/21 00:03:21;;;;;;;0.60;0.60;;;;;;;;;;5055285;28;20078;-75
2022/07/21 00:05:47;;;;;;;0.22;0.22;;;;;;;;;;5055012;28;20044;-75
2022/07/21 00:08:13;;;;;;;1.00;0.77;;;;;;;;;;5056884;28;20484;-75
2022/07/21 00:10:39;;;;;;;0.60;0.60;;;;;;;;;;5055334;28;20017;-73
2022/07/21 00:13:05;;;;;;;1.00;0.80;;;;;;;;;;5055508;28;20029;-74
2022/07/21 00:15:31;;;;;;;1.60;1.42;;;;;;;;;;5055266;28;20028;-74
2022/07/21 00:17:57;;;;;;;0.55;0.50;;;;;;;;;;5056693;28;20095;-73
2022/07/21 00:20:23;;;;;;;0.20;0.20;;;;;;;;;;5054867;28;20496;-73
2022/07/21 00:22:48;;;;;;;12.07;0.60;;;;;;;;;;5038598;28;20021;-75
2022/07/21 00:25:14;;;;;;;0.40;0.40;;;;;;;;;;5055213;28;20112;-74
2022/07/21 00:27:41;;;;;;;1.38;0.98;;;;;;;;;;5055126;28;20040;-74
2022/07/21 00:30:08;;;;;;;0.52;0.52;;;;;;;;;;5056160;28;20036;-74
2022/07/21 00:32:34;;;;;;;0.90;0.88;;;;;;;;;;5055947;28;20048;-74
2022/07/21 00:34:59;;;;;;;0.63;0.40;;;;;;;;;;5055968;28;20025;-75
2022/07/21 00:37:27;;;;;;;0.40;0.40;;;;;;;;;;5056221;28;20033;-75
2022/07/21 00:39:53;;;;;;;1.35;1.23;;;;;;;;;;5056153;28;20025;-75
2022/07/21 00:42:21;;;;;;;0.70;0.50;;;;;;;;;;5056274;28;20025;-74
2022/07/21 00:44:47;;;;;;;0.20;0.20;;;;;;;;;;5055119;28;20099;-74
2022/07/21 00:47:13;;;;;;;0.90;0.90;;;;;;;;;;5038172;28;20512;-75
2022/07/21 00:49:38;;;;;;;0.40;0.40;;;;;;;;;;5054465;28;20036;-75
2022/07/21 00:52:04;;;;;;;2.78;1.73;;;;;;;;;;5038134;28;20040;-75
2022/07/21 00:54:30;;;;;;;0.20;0.20;;;;;;;;;;5055678;28;20020;-75
2022/07/21 00:56:55;;;;;;;0.20;0.20;;;;;;;;;;5037851;28;20033;-75
2022/07/21 00:59:21;;;;;;;0.35;0.35;;;;;;;;;;5055449;28;20025;-76
2022/07/21 01:01:46;;;;;;;0.50;0.50;;;;;;;;;;5054369;28;20036;-75
2022/07/21 01:04:12;;;;;;;0.20;0.20;;;;;;;;;;5055436;28;20527;-76
2022/07/21 01:06:40;;;;;;;0.63;0.63;;;;;;;;;;5054169;28;20120;-75
2022/07/21 01:09:12;;;;;;;0.20;0.20;;;;;;;;;;5055765;28;20028;-76
2022/07/21 01:11:40;;;;;;;0.20;0.20;;;;;;;;;;5055620;28;20029;-76
2022/07/21 01:14:06;;;;;;;0.50;0.40;;;;;;;;;;5055347;28;20025;-76
2022/07/21 01:16:32;;;;;;;0.30;0.30;;;;;;;;;;5055319;28;20318;-75
2022/07/21 01:18:57;;;;;;;0.20;0.20;;;;;;;;;;5055114;28;20040;-75
2022/07/21 01:21:27;;;;;;;0.30;0.30;;;;;;;;;;5055452;28;20028;-75
2022/07/21 01:23:52;;;;;;;0.43;0.38;;;;;;;;;;5055197;28;20032;-75
2022/07/21 01:26:18;;;;;;;0.28;0.28;;;;;;;;;;5055215;28;20029;-76
2022/07/21 01:28:44;;;;;;;0.30;0.30;;;;;;;;;;5055212;28;20083;-75
2022/07/21 01:31:09;;;;;;;0.20;0.20;;;;;;;;;;5055067;28;20033;-75
2022/07/21 01:33:35;;;;;;;3.72;2.08;;;;;;;;;;5054956;28;20097;-75
2022/07/21 01:36:00;;;;;;;0.30;0.30;;;;;;;;;;5055173;28;20032;-76
2022/07/21 01:44:09;;;;;;;0.20;0.20;;;;;;;;;;5040415;28;20033;-76
2022/07/21 01:46:36;;;;;;;0.57;0.57;;;;;;;;;;5053718;28;20549;-76
2022/07/21 01:49:02;;;;;;;0.73;0.70;;;;;;;;;;5054757;28;20029;-76
2022/07/21 01:51:27;;;;;;;0.25;0.25;;;;;;;;;;5053454;28;20029;-77
2022/07/21 01:53:53;;;;;;;0.75;0.70;;;;;;;;;;5054762;28;20029;-75
2022/07/21 01:56:20;;;;;;;0.60;0.60;;;;;;;;;;5054594;28;20029;-75
2022/07/21 01:58:46;;;;;;;0.30;0.30;;;;;;;;;;5053248;28;20025;-74
2022/07/21 02:01:12;;;;;;;0.20;0.20;;;;;;;;;;5053548;28;20040;-75
2022/07/21 02:03:38;;;;;;;0.65;0.65;;;;;;;;;;5054601;28;20484;-76
2022/07/21 02:06:04;;;;;;;0.40;0.40;;;;;;;;;;5054472;28;20021;-74
2022/07/21 02:08:30;;;;;;;0.30;0.30;;;;;;;;;;5053384;28;20021;-76
2022/07/21 02:10:57;;;;;;;1.10;1.00;;;;;;;;;;5053621;28;20033;-75
2022/07/21 02:13:22;;;;;;;0.57;0.50;;;;;;;;;;5052847;28;20047;-76
2022/07/21 02:15:48;;;;;;;0.30;0.30;;;;;;;;;;5054477;28;20505;-78
2022/07/21 02:18:13;;;;;;;0.28;0.28;;;;;;;;;;5054352;28;20021;-77
2022/07/21 02:20:39;;;;;;;0.40;0.35;;;;;;;;;;5054374;28;20047;-77
2022/07/21 02:23:05;;;;;;;0.20;0.20;;;;;;;;;;5054201;28;20028;-75
2022/07/21 02:25:30;;;;;;;1.30;1.00;;;;;;;;;;5053990;28;20036;-77
2022/07/21 02:27:56;;;;;;;1.60;0.80;;;;;;;;;;5053763;28;20070;-77
2022/07/21 02:30:22;;;;;;;0.47;0.47;;;;;;;;;;5054129;28;20036;-77
2022/07/21 02:32:47;;;;;;;0.35;0.35;;;;;;;;;;5053668;28;20081;-76
2022/07/21 02:35:13;;;;;;;0.50;0.40;;;;;;;;;;5053869;28;20021;-76
2022/07/21 02:37:39;;;;;;;0.80;0.60;;;;;;;;;;5052689;28;20041;-77
2022/07/21 02:40:05;;;;;;;0.20;0.20;;;;;;;;;;5053879;28;20025;-76
2022/07/21 02:42:31;;;;;;;0.68;0.68;;;;;;;;;;5053689;28;20029;-74
2022/07/21 02:44:56;;;;;;;0.20;0.20;;;;;;;;;;5052791;28;20477;-75
2022/07/21 02:47:22;;;;;;;0.40;0.40;;;;;;;;;;5053745;28;20052;-75
2022/07/21 02:49:48;;;;;;;0.40;0.40;;;;;;;;;;5053741;28;20056;-74
2022/07/21 02:52:13;;;;;;;0.20;0.20;;;;;;;;;;5053632;28;20138;-74
2022/07/21 02:54:39;;;;;;;0.20;0.20;;;;;;;;;;5053841;28;20380;-74
2022/07/21 02:57:05;;;;;;;0.20;0.20;;;;;;;;;;5053453;28;20025;-75
2022/07/21 02:59:30;;;;;;;0.20;0.20;;;;;;;;;;5053775;28;20025;-74
2022/07/21 03:01:56;;;;;;;0.20;0.20;;;;;;;;;;5052645;28;20112;-74
2022/07/21 03:04:21;;;;;;;0.20;0.20;;;;;;;;;;5048419;28;20384;-75
2022/07/21 03:06:47;;;;;;;0.30;0.30;;;;;;;;;;5048067;28;20061;-75
2022/07/21 03:09:12;;;;;;;0.20;0.20;;;;;;;;;;5049576;28;20036;-75
2022/07/21 03:11:38;;;;;;;0.20;0.20;;;;;;;;;;5049848;28;20031;-75
2022/07/21 03:14:03;;;;;;;0.25;0.25;;;;;;;;;;5048265;28;20384;-73
2022/07/21 03:16:29;;;;;;;0.20;0.20;;;;;;;;;;5048269;28;20024;-73
2022/07/21 03:18:54;;;;;;;0.20;0.20;;;;;;;;;;5049287;28;20538;-73
2022/07/21 03:21:20;;;;;;;0.40;0.40;;;;;;;;;;5048043;28;20029;-75
2022/07/21 03:23:46;;;;;;;1.08;1.08;;;;;;;;;;5047932;28;20029;-75
2022/07/21 03:26:12;;;;;;;0.20;0.20;;;;;;;;;;5049403;28;20033;-75
2022/07/21 03:28:38;;;;;;;0.20;0.20;;;;;;;;;;5048940;28;20488;-75
2022/07/21 03:31:04;;;;;;;0.22;0.22;;;;;;;;;;5049105;28;20025;-73
2022/07/21 03:33:30;;;;;;;0.30;0.30;;;;;;;;;;5048638;28;20496;-75
2022/07/21 03:35:57;;;;;;;0.45;0.40;;;;;;;;;;5047718;28;20029;-74
2022/07/21 03:38:23;;;;;;;0.20;0.20;;;;;;;;;;5047185;28;20438;-75
2022/07/21 03:40:48;;;;;;;0.20;0.20;;;;;;;;;;5049082;28;20112;-74
2022/07/21 03:43:14;;;;;;;0.20;0.20;;;;;;;;;;5048923;28;20060;-76
2022/07/21 03:45:39;;;;;;;0.20;0.20;;;;;;;;;;5046801;28;20041;-74
2022/07/21 03:48:06;;;;;;;0.22;0.22;;;;;;;;;;5031042;28;20037;-75
2022/07/21 03:50:32;;;;;;;0.20;0.20;;;;;;;;;;5048715;28;20021;-74
2022/07/21 03:52:58;;;;;;;0.20;0.20;;;;;;;;;;5048808;28;20035;-74
2022/07/21 03:55:24;;;;;;;0.20;0.20;;;;;;;;;;5047445;28;20353;-78
2022/07/21 03:57:49;;;;;;;0.28;0.28;;;;;;;;;;5047700;28;20083;-74
2022/07/21 04:00:23;;;;;;;0.30;0.30;;;;;;;;;;5046995;28;20052;-75
2022/07/21 04:02:49;;;;;;;0.20;0.20;;;;;;;;;;5049125;28;20099;-74
2022/07/21 04:05:15;;;;;;;0.30;0.30;;;;;;;;;;5047365;28;20029;-74
2022/07/21 04:07:42;;;;;;;0.20;0.20;;;;;;;;;;5030682;28;20476;-74
2022/07/21 04:10:08;;;;;;;0.20;0.20;;;;;;;;;;5048751;28;20025;-75
2022/07/21 04:12:34;;;;;;;0.30;0.30;;;;;;;;;;5046931;28;20052;-75
2022/07/21 04:14:59;;;;;;;0.40;0.40;;;;;;;;;;5048756;28;20068;-75
2022/07/21 04:17:25;;;;;;;1.00;1.00;;;;;;;;;;5029662;28;20017;-75
2022/07/21 04:19:50;;;;;;;0.20;0.20;;;;;;;;;;5048269;28;20407;-75
2022/07/21 04:22:16;;;;;;;0.30;0.30;;;;;;;;;;5048476;28;20025;-75
2022/07/21 04:24:41;;;;;;;0.20;0.20;;;;;;;;;;5048451;28;20068;-76
2022/07/21 04:27:07;;;;;;;0.20;0.20;;;;;;;;;;5047500;28;20037;-76
2022/07/21 04:29:33;;;;;;;0.20;0.20;;;;;;;;;;5048585;28;20460;-76
2022/07/21 04:31:59;;;;;;;7.15;5.32;;;;;;;;;;5046609;28;20032;-76
2022/07/21 04:34:25;;;;;;;0.20;0.20;;;;;;;;;;5049299;28;20032;-76
2022/07/21 04:36:50;;;;;;;0.20;0.20;;;;;;;;;;5052059;28;20032;-75
2022/07/21 04:39:16;;;;;;;0.20;0.20;;;;;;;;;;5052109;28;20032;-75
2022/07/21 04:41:42;;;;;;;0.20;0.20;;;;;;;;;;5033992;28;20068;-74
2022/07/21 04:44:07;;;;;;;0.20;0.20;;;;;;;;;;5052244;28;20029;-75
2022/07/21 04:46:33;;;;;;;0.75;0.73;;;;;;;;;;5023752;28;20099;-76
2022/07/21 04:48:58;;;;;;;0.43;0.43;;;;;;;;;;5032015;28;20104;-76
2022/07/21 04:51:24;;;;;;;0.20;0.20;;;;;;;;;;5032508;28;20033;-77
2022/07/21 04:53:50;;;;;;;0.20;0.20;;;;;;;;;;5051821;28;20029;-76
2022/07/21 04:56:15;;;;;;;0.20;0.20;;;;;;;;;;5050597;28;20102;-79
2022/07/21 04:58:41;;;;;;;0.20;0.20;;;;;;;;;;5052017;28;20052;-79
2022/07/21 05:01:06;;;;;;;0.20;0.20;;;;;;;;;;5050460;28;20025;-76
2022/07/21 05:03:32;;;;;;;0.20;0.20;;;;;;;;;;5051909;28;20029;-76
2022/07/21 05:05:57;;;;;;;0.30;0.30;;;;;;;;;;5051708;28;20036;-75
2022/07/21 05:08:23;;;;;;;0.20;0.20;;;;;;;;;;5056803;28;20021;-76
2022/07/21 05:10:48;;;;;;;0.20;0.20;;;;;;;;;;5052628;28;20029;-74
2022/07/21 05:13:14;;;;;;;0.22;0.22;;;;;;;;;;5052996;28;20029;-75
2022/07/21 05:15:40;;;;;;;0.28;0.28;;;;;;;;;;5053161;28;20047;-75
2022/07/21 05:18:07;;;;;;;0.30;0.30;;;;;;;;;;5059236;28;20067;-75
2022/07/21 05:20:33;;;;;;;1.40;1.40;;;;;;;;;;5071674;28;20115;-74
2022/07/21 05:22:58;;;;;;;0.20;0.20;;;;;;;;;;5070011;28;20091;-74
2022/07/21 05:25:24;;;;;;;0.30;0.30;;;;;;;;;;5071369;28;20120;-75
2022/07/21 05:27:50;;;;;;;0.22;0.22;;;;;;;;;;5052415;28;20025;-75
2022/07/21 05:30:15;;;;;;;0.35;0.35;;;;;;;;;;5046441;28;20024;-73
2022/07/21 05:32:41;;;;;;;0.30;0.30;;;;;;;;;;5049589;28;20507;-77
2022/07/21 05:35:10;;;;;;;0.25;0.25;;;;;;;;;;5051170;28;20032;-77
2022/07/21 05:37:37;;;;;;;0.30;0.30;;;;;;;;;;5053651;28;20032;-75
2022/07/21 05:40:03;;;;;;;0.30;0.30;;;;;;;;;;5059315;28;20033;-76
2022/07/21 05:42:29;;;;;;;0.28;0.28;;;;;;;;;;5068987;28;20078;-75
2022/07/21 05:44:56;;;;;;;0.30;0.30;;;;;;;;;;5068255;28;20476;-75
2022/07/21 05:47:21;;;;;;;0.38;0.38;;;;;;;;;;5068719;28;20049;-75
2022/07/21 05:49:47;;;;;;;0.30;0.30;;;;;;;;;;5069078;28;20139;-75
2022/07/21 05:52:13;;;;;;;0.50;0.50;;;;;;;;;;5068666;28;20070;-75
2022/07/21 05:54:39;;;;;;;0.38;0.38;;;;;;;;;;5068716;28;20032;-75
2022/07/21 05:57:04;;;;;;;0.30;0.30;;;;;;;;;;5068383;28;20067;-75
2022/07/21 05:59:30;;;;;;;0.30;0.30;;;;;;;;;;5069060;28;20035;-74
2022/07/21 06:01:55;;;;;;;0.40;0.40;;;;;;;;;;5067525;28;20027;-74
2022/07/21 06:04:21;;;;;;;0.30;0.30;;;;;;;;;;5068431;28;20037;-74
2022/07/21 06:06:46;;;;;;;0.30;0.30;;;;;;;;;;5068621;28;20159;-77
2022/07/21 06:09:12;;;;;;;0.30;0.30;;;;;;;;;;5055137;28;20032;-76
2022/07/21 06:11:38;;;;;;;0.30;0.30;;;;;;;;;;5048623;28;20586;-76
2022/07/21 06:14:04;;;;;;;0.30;0.30;;;;;;;;;;5053898;28;20037;-73
2022/07/21 06:16:29;;;;;;;0.40;0.40;;;;;;;;;;5066469;28;20039;-74
2022/07/21 06:18:55;;;;;;;0.28;0.28;;;;;;;;;;5068283;28;20024;-76
2022/07/21 06:21:21;;;;;;;0.30;0.30;;;;;;;;;;5068278;28;20051;-75
2022/07/21 06:23:46;;;;;;;0.30;0.30;;;;;;;;;;5068205;28;20039;-77
2022/07/21 06:26:12;;;;;;;0.30;0.30;;;;;;;;;;5040119;28;20033;-75
2022/07/21 06:28:37;;;;;;;0.40;0.40;;;;;;;;;;5046754;28;20583;-74
2022/07/21 06:31:03;;;;;;;0.40;0.40;;;;;;;;;;5048376;28;20120;-74
2022/07/21 06:33:31;;;;;;;0.38;0.38;;;;;;;;;;5047278;28;20079;-75
2022/07/21 06:35:57;;;;;;;0.30;0.30;;;;;;;;;;5046736;28;20029;-75
2022/07/21 06:38:22;;;;;;;0.32;0.32;;;;;;;;;;5047826;28;20043;-75
2022/07/21 06:40:48;;;;;;;0.47;0.47;;;;;;;;;;5046808;28;20055;-78
2022/07/21 06:43:13;;;;;;;0.30;0.30;;;;;;;;;;5047735;28;20469;-74
2022/07/21 06:45:39;;;;;;;0.30;0.30;;;;;;;;;;5047631;28;20031;-75
2022/07/21 06:48:06;;;;;;;0.40;0.40;;;;;;;;;;5047755;28;20040;-75
2022/07/21 06:50:31;;;;;;;0.55;0.55;;;;;;;;;;5047447;28;20029;-73
2022/07/21 06:52:57;;;;;;;0.30;0.30;;;;;;;;;;5047911;28;20363;-74
2022/07/21 06:55:23;;;;;;;0.60;0.60;;;;;;;;;;5046787;28;20028;-77
2022/07/21 06:57:48;;;;;;;0.85;0.85;;;;;;;;;;5045811;28;20570;-77
2022/07/21 07:00:14;;;;;;;0.30;0.30;;;;;;;;;;5047047;28;20060;-76
2022/07/21 07:02:40;;;;;;;0.40;0.40;;;;;;;;;;5046795;28;20025;-77
2022/07/21 07:05:05;;;;;;;0.38;0.38;;;;;;;;;;5046619;28;20032;-76
2022/07/21 07:07:31;;;;;;;0.40;0.40;;;;;;;;;;5046939;28;20526;-77
2022/07/21 07:09:58;;;;;;;0.40;0.40;;;;;;;;;;5038958;28;20045;-77
2022/07/21 07:12:25;;;;;;;0.38;0.38;;;;;;;;;;5033582;28;20041;-76
2022/07/21 07:14:51;;;;;;;0.40;0.40;;;;;;;;;;5033719;28;20040;-75
2022/07/21 07:17:18;;;;;;;0.35;0.35;;;;;;;;;;5038318;28;20025;-76
2022/07/21 07:19:44;;;;;;;0.40;0.40;;;;;;;;;;5038201;28;20037;-76
2022/07/21 07:22:10;;;;;;;0.32;0.32;;;;;;;;;;5042826;28;20037;-75
2022/07/21 07:24:35;;;;;;;0.73;0.73;;;;;;;;;;5045076;28;20036;-76
2022/07/21 07:27:00;;;;;;;0.40;0.40;;;;;;;;;;5017140;28;20673;-77
2022/07/21 07:29:28;;;;;;;0.50;0.50;;;;;;;;;;5043073;28;20025;-76
2022/07/21 07:31:53;;;;;;;0.30;0.30;;;;;;;;;;5042549;28;20083;-76
2022/07/21 07:34:19;;;;;;;0.47;0.47;;;;;;;;;;5044377;28;20037;-77
2022/07/21 07:36:44;;;;;;;0.43;0.43;;;;;;;;;;5047230;28;20067;-75
2022/07/21 07:39:10;;;;;;;4.38;4.07;;;;;;;;;;5046516;28;20531;-76
2022/07/21 07:41:35;;;;;;;0.30;0.30;;;;;;;;;;5045584;28;20033;-75
2022/07/21 07:44:01;;;;;;;0.50;0.50;;;;;;;;;;5047220;28;20029;-77
2022/07/21 07:46:26;;;;;;;0.95;0.85;;;;;;;;;;5048043;28;20455;-76
2022/07/21 07:48:52;;;;;;;0.43;0.43;;;;;;;;;;5046142;28;20090;-75
2022/07/21 07:51:18;;;;;;;0.40;0.40;;;;;;;;;;5043809;28;20113;-75
2022/07/21 07:53:43;;;;;;;0.40;0.40;;;;;;;;;;5044342;28;20732;-76
2022/07/21 07:56:09;;;;;;;0.40;0.40;;;;;;;;;;5044984;28;20072;-76
2022/07/21 07:58:34;;;;;;;0.40;0.40;;;;;;;;;;5060323;28;20061;-76
2022/07/21 08:01:00;;;;;;;0.40;0.40;;;;;;;;;;5043952;28;20099;-76
2022/07/21 08:03:26;;;;;;;0.40;0.40;;;;;;;;;;5044909;28;20486;-76
2022/07/21 08:05:53;;;;;;;0.50;0.50;;;;;;;;;;5044681;28;20044;-76
2022/07/21 08:08:18;;;;;;;0.50;0.50;;;;;;;;;;5046218;28;20111;-76
2022/07/21 08:10:45;;;;;;;0.40;0.40;;;;;;;;;;5050598;28;20116;-77
2022/07/21 08:13:15;;;;;;;0.40;0.40;;;;;;;;;;5050473;28;20037;-76
2022/07/21 08:15:40;;;;;;;1.25;1.25;;;;;;;;;;5051013;28;20037;-76
2022/07/21 08:18:06;;;;;;;0.45;0.45;;;;;;;;;;5050668;28;20029;-76
2022/07/21 08:20:33;;;;;;;0.40;0.40;;;;;;;;;;5051571;28;20024;-76
2022/07/21 08:22:58;;;;;;;0.60;0.60;;;;;;;;;;5043490;28;20112;-76
2022/07/21 08:25:24;;;;;;;0.40;0.40;;;;;;;;;;5049901;28;20112;-76
2022/07/21 08:27:49;;;;;;;0.82;0.82;;;;;;;;;;5048461;28;20063;-76
2022/07/21 08:30:15;;;;;;;0.90;0.90;;;;;;;;;;5049508;28;20033;-76
2022/07/21 08:32:40;;;;;;;0.40;0.40;;;;;;;;;;5048876;28;20057;-76
2022/07/21 08:35:08;;;;;;;0.52;0.52;;;;;;;;;;5050088;28;20033;-76
2022/07/21 08:37:37;;;;;;;0.40;0.40;;;;;;;;;;5032810;28;20066;-76
2022/07/21 08:40:08;;;;;;;1.02;1.02;;;;;;;;;;5048741;28;20067;-76
2022/07/21 08:42:34;;;;;;;0.55;0.55;;;;;;;;;;5050195;28;20473;-76
2022/07/21 08:44:59;;;;;;;0.43;0.43;;;;;;;;;;5050191;28;20044;-76
2022/07/21 08:47:25;;;;;;;0.70;0.70;;;;;;;;;;5050226;28;20047;-76
2022/07/21 08:49:51;;;;;;;0.70;0.70;;;;;;;;;;5050178;28;20028;-76
2022/07/21 08:52:18;;;;;;;2.85;1.85;;;;;;;;;;5047957;28;20706;-76
2022/07/21 08:54:43;;;;;;;0.60;0.60;;;;;;;;;;5049645;28;20111;-76
2022/07/21 08:57:09;;;;;;;0.50;0.50;;;;;;;;;;5048079;28;20477;-76
2022/07/21 08:59:35;;;;;;;1.38;1.17;;;;;;;;;;5050146;28;20367;-76
2022/07/21 09:02:00;;;;;;;3.80;2.63;;;;;;;;;;5051718;28;20028;-76
2022/07/21 09:04:30;;;;;;;0.60;0.60;;;;;;;;;;5048908;28;20027;-76
2022/07/21 09:06:57;;;;;;;1.42;1.33;;;;;;;;;;5048193;28;20123;-76
2022/07/21 09:09:23;;;;;;;12.60;3.10;;;;;;;;;;5049289;28;20132;-75
2022/07/21 09:11:49;;;;;;;2.00;1.80;;;;;;;;;;5049753;28;20459;-75
2022/07/21 09:14:19;;;;;;;1.30;1.17;;;;;;;;;;5049669;28;20037;-76
2022/07/21 09:16:46;;;;;;;1.20;0.80;;;;;;;;;;5048366;28;20060;-75
2022/07/21 09:19:26;;;;;;;1.83;1.10;;;;;;;;;;5049332;28;20032;-77
2022/07/21 09:21:53;;;;;;;0.50;0.50;;;;;;;;;;5048181;28;20043;-77
2022/07/21 09:24:32;;;;;;;0.95;0.95;;;;;;;;;;5049115;28;20033;-77
2022/07/21 09:27:16;;;;;;;0.80;0.75;;;;;;;;;;5047881;28;20048;-77
2022/07/21 09:29:46;;;;;;;2.63;2.40;;;;;;;;;;5049340;28;20029;-77
2022/07/21 09:32:22;;;;;;;0.80;0.80;;;;;;;;;;5049181;28;20155;-77
2022/07/21 09:34:49;;;;;;;1.58;1.42;;;;;;;;;;5048862;28;20329;-78
2022/07/21 09:37:15;;;;;;;0.38;0.38;;;;;;;;;;5049114;28;20056;-77
2022/07/21 09:39:45;;;;;;;4.50;2.63;;;;;;;;;;5048962;28;20520;-77
2022/07/21 09:42:15;;;;;;;1.77;1.33;;;;;;;;;;5049132;28;20521;-76
2022/07/21 09:44:45;;;;;;;0.60;0.60;;;;;;;;;;5042688;28;20028;-76
2022/07/21 09:47:12;;;;;;;0.55;0.55;;;;;;;;;;5022528;28;20044;-77
2022/07/21 09:49:38;;;;;;;2.22;1.42;;;;;;;;;;5044533;28;20025;-76
2022/07/21 09:52:17;;;;;;;0.52;0.52;;;;;;;;;;5047705;28;20043;-76
2022/07/21 09:54:43;;;;;;;1.60;1.33;;;;;;;;;;5049057;28;20033;-77
2022/07/21 09:57:09;;;;;;;6.80;2.10;;;;;;;;;;5048914;28;20523;-77
2022/07/21 09:59:34;;;;;;;2.08;1.70;;;;;;;;;;5048805;28;20025;-76
2022/07/21 10:02:00;;;;;;;1.00;0.90;;;;;;;;;;5047552;28;20017;-75
2022/07/21 10:04:26;;;;;;;1.15;0.98;;;;;;;;;;5047124;28;20028;-78
2022/07/21 10:06:51;;;;;;;0.57;0.57;;;;;;;;;;5049074;28;20095;-79
2022/07/21 10:09:17;;;;;;;0.30;0.30;;;;;;;;;;5048318;28;20021;-78
2022/07/21 10:11:42;;;;;;;0.77;0.77;;;;;;;;;;5045792;28;20032;-77
2022/07/21 10:14:09;;;;;;;0.90;0.90;;;;;;;;;;5044278;28;20025;-77
2022/07/21 10:16:35;;;;;;;0.45;0.45;;;;;;;;;;5047381;28;20039;-76
2022/07/21 10:19:04;;;;;;;0.77;0.77;;;;;;;;;;5042954;28;20021;-77
2022/07/21 10:21:41;;;;;;;1.77;0.95;;;;;;;;;;5044484;28;20381;-76
2022/07/21 10:24:09;;;;;;;0.40;0.40;;;;;;;;;;5047382;28;20031;-76
2022/07/21 10:26:34;;;;;;;2.55;2.35;;;;;;;;;;5046908;28;20055;-78
2022/07/21 10:29:00;;;;;;;0.60;0.60;;;;;;;;;;5045276;28;20468;-77
2022/07/21 10:31:28;;;;;;;5.32;1.40;;;;;;;;;;5046028;28;20063;-77
2022/07/21 10:33:57;;;;;;;0.65;0.65;;;;;;;;;;5045242;28;20504;-77
2022/07/21 10:36:36;;;;;;;0.75;0.75;;;;;;;;;;5044490;28;20126;-76
2022/07/21 10:39:10;;;;;;;2.13;1.85;;;;;;;;;;5044662;28;20535;-78
2022/07/21 10:41:40;;;;;;;3.28;1.92;;;;;;;;;;5044220;28;20036;-76
2022/07/21 10:44:24;;;;;;;1.75;1.40;;;;;;;;;;5047626;28;20112;-77
2022/07/21 10:47:09;;;;;;;0.60;0.60;;;;;;;;;;5046975;28;20120;-77
2022/07/21 10:49:54;;;;;;;3.42;1.80;;;;;;;;;;5050872;28;20827;-77
2022/07/21 10:52:35;;;;;;;4.18;1.38;;;;;;;;;;5047131;28;20087;-76
2022/07/21 10:55:09;;;;;;;1.05;0.93;;;;;;;;;;5047287;28;20028;-77
2022/07/21 10:57:42;;;;;;;1.77;1.30;;;;;;;;;;5046240;28;20025;-77
2022/07/21 11:00:21;;;;;;;1.05;0.98;;;;;;;;;;5044530;28;20028;-78
2022/07/21 11:02:48;;;;;;;1.00;0.90;;;;;;;;;;5043882;28;20767;-78
2022/07/21 11:05:13;;;;;;;0.95;0.90;;;;;;;;;;5043300;28;20367;-76
2022/07/21 11:07:58;;;;;;;1.08;1.08;;;;;;;;;;5046189;28;20041;-75
2022/07/21 11:10:26;;;;;;;2.72;2.17;;;;;;;;;;5055649;28;20017;-76
2022/07/21 11:12:54;;;;;;;0.80;0.80;;;;;;;;;;5055966;28;20104;-75
2022/07/21 11:15:39;;;;;;;0.50;0.50;;;;;;;;;;5039051;28;20025;-77
2022/07/21 11:18:05;;;;;;;1.77;1.60;;;;;;;;;;5048280;28;20021;-77
2022/07/21 11:20:30;;;;;;;2.22;1.40;;;;;;;;;;5052966;28;20021;-77
2022/07/21 11:23:02;;;;;;;0.90;0.90;;;;;;;;;;5044852;28;20039;-78
2022/07/21 11:25:28;;;;;;;2.17;1.65;;;;;;;;;;5035391;28;20044;-76
2022/07/21 11:27:54;;;;;;;2.55;1.77;;;;;;;;;;5043878;28;20454;-76
2022/07/21 11:30:19;;;;;;;3.58;1.90;;;;;;;;;;5035184;28;20144;-77
2022/07/21 11:32:45;;;;;;;1.02;0.93;;;;;;;;;;5033715;28;20144;-77
2022/07/21 11:35:12;;;;;;;1.30;1.20;;;;;;;;;;5038864;28;20018;-77
2022/07/21 11:37:39;;;;;;;6.45;1.58;;;;;;;;;;5035371;28;20030;-77
2022/07/21 11:40:06;;;;;;;2.75;1.90;;;;;;;;;;5043858;28;20029;-77
2022/07/21 11:42:32;;;;;;;2.05;1.35;;;;;;;;;;5041690;28;20051;-76
2022/07/21 11:44:57;;;;;;;2.83;1.25;;;;;;;;;;5042313;28;20032;-76
2022/07/21 11:47:25;;;;;;;0.73;0.73;;;;;;;;;;5033475;28;20714;-77
2022/07/21 11:49:55;;;;;;;3.08;1.95;;;;;;;;;;5038405;28;20088;-76
2022/07/21 11:52:25;;;;;;;7.13;1.63;;;;;;;;;;5040706;28;20083;-76
2022/07/21 11:54:52;;;;;;;1.67;1.33;;;;;;;;;;5036803;28;20029;-76
2022/07/21 11:57:18;;;;;;;1.92;1.30;;;;;;;;;;5046837;28;20025;-77
2022/07/21 11:59:44;;;;;;;1.33;1.23;;;;;;;;;;5039485;28;20040;-76
2022/07/21 12:02:11;;;;;;;1.08;0.98;;;;;;;;;;5044146;28;20032;-77
2022/07/21 12:04:39;;;;;;;2.45;1.70;;;;;;;;;;5047302;28;20392;-75
2022/07/21 12:07:30;;;;;;;19.33;4.18;;;;;;;;;;5032642;28;20116;-77
2022/07/21 12:10:00;;;;;;;0.50;0.50;;;;;;;;;;5022129;28;20044;-77
2022/07/21 12:12:30;;;;;;;0.93;0.88;;;;;;;;;;5040316;28;20024;-75
2022/07/21 12:14:56;;;;;;;5.32;1.35;;;;;;;;;;5036505;28;20103;-76
2022/07/21 12:17:35;;;;;;;1.02;0.93;;;;;;;;;;5038247;28;20033;-78
2022/07/21 12:20:00;;;;;;;0.80;0.80;;;;;;;;;;5036717;28;20021;-77
2022/07/21 12:22:36;;;;;;;1.17;1.08;;;;;;;;;;5037175;28;20547;-77
2022/07/21 12:25:03;;;;;;;0.93;0.80;;;;;;;;;;5048002;28;20488;-76
2022/07/21 12:27:28;;;;;;;3.45;1.85;;;;;;;;;;5027896;28;20090;-76
2022/07/21 12:29:54;;;;;;;2.15;1.55;;;;;;;;;;5038530;28;20116;-77
2022/07/21 12:32:40;;;;;;;0.95;0.85;;;;;;;;;;5037283;28;20439;-77
2022/07/21 12:35:15;;;;;;;1.15;1.05;;;;;;;;;;5040051;28;20056;-76
2022/07/21 12:37:51;;;;;;;7.72;7.03;;;;;;;;;;5036507;28;20029;-76
2022/07/21 12:40:17;;;;;;;1.55;1.10;;;;;;;;;;5050037;28;20078;-77
2022/07/21 12:42:43;;;;;;;1.17;1.08;;;;;;;;;;5050370;28;20376;-76
2022/07/21 12:45:16;;;;;;;1.60;1.13;;;;;;;;;;5049959;28;20041;-73
2022/07/21 12:47:41;;;;;;;4.75;1.40;;;;;;;;;;5050585;28;20045;-75
2022/07/21 12:50:08;;;;;;;3.10;1.77;;;;;;;;;;5047967;28;20037;-76
2022/07/21 12:52:34;;;;;;;1.27;1.17;;;;;;;;;;5048125;28;20053;-76
2022/07/21 12:55:00;;;;;;;2.17;1.38;;;;;;;;;;5048709;28;20063;-77
2022/07/21 12:57:30;;;;;;;1.65;1.00;;;;;;;;;;5029108;28;20036;-75
2022/07/21 12:59:57;;;;;;;0.60;0.60;;;;;;;;;;5029910;28;20032;-76
2022/07/21 13:02:23;;;;;;;1.42;1.33;;;;;;;;;;5030176;28;20026;-75
2022/07/21 13:04:49;;;;;;;1.40;1.15;;;;;;;;;;5046322;28;20116;-77
2022/07/21 13:07:15;;;;;;;1.10;0.98;;;;;;;;;;5029411;28;20037;-76
2022/07/21 13:09:41;;;;;;;3.90;1.55;;;;;;;;;;5037096;28;20025;-76
2022/07/21 13:12:06;;;;;;;4.50;1.17;;;;;;;;;;5048422;28;20333;-75
2022/07/21 13:14:32;;;;;;;2.60;1.90;;;;;;;;;;5047758;28;20048;-76
2022/07/21 13:16:58;;;;;;;3.25;1.80;;;;;;;;;;5048188;28;20506;-77
2022/07/21 13:19:24;;;;;;;2.13;1.88;;;;;;;;;;5048485;28;20025;-76
2022/07/21 13:21:50;;;;;;;1.63;1.33;;;;;;;;;;5048056;28;20045;-75
2022/07/21 13:24:15;;;;;;;1.98;1.45;;;;;;;;;;5047707;28;20025;-77
2022/07/21 13:26:41;;;;;;;2.35;1.60;;;;;;;;;;5045537;28;20040;-76
2022/07/21 13:29:07;;;;;;;2.00;1.73;;;;;;;;;;5047269;28;20032;-76
2022/07/21 13:31:36;;;;;;;0.85;0.73;;;;;;;;;;5047607;28;20024;-76
2022/07/21 13:34:07;;;;;;;4.03;1.63;;;;;;;;;;5047623;28;20059;-77
2022/07/21 13:36:33;;;;;;;1.30;0.98;;;;;;;;;;5049205;28;20021;-78
2022/07/21 13:38:58;;;;;;;1.10;1.00;;;;;;;;;;5048895;28;20025;-77
2022/07/21 13:41:24;;;;;;;1.85;1.52;;;;;;;;;;5049070;28;20044;-77
2022/07/21 13:43:49;;;;;;;3.17;1.50;;;;;;;;;;5049426;28;20025;-76
2022/07/21 13:46:15;;;;;;;1.20;1.05;;;;;;;;;;5049290;28;20045;-76
2022/07/21 13:48:41;;;;;;;8.55;1.27;;;;;;;;;;5049144;28;20114;-76
2022/07/21 13:51:08;;;;;;;5.85;2.55;;;;;;;;;;5048313;28;20473;-76
2022/07/21 13:53:34;;;;;;;2.00;1.42;;;;;;;;;;5047849;28;20455;-76
2022/07/21 13:55:59;;;;;;;4.32;1.48;;;;;;;;;;5047854;28;20132;-76
2022/07/21 13:58:25;;;;;;;5.65;1.75;;;;;;;;;;5034212;28;20033;-76
2022/07/21 14:00:51;;;;;;;1.55;1.40;;;;;;;;;;5047079;28;20039;-76
2022/07/21 14:03:16;;;;;;;2.67;1.67;;;;;;;;;;5046985;28;20021;-77
2022/07/21 14:05:42;;;;;;;3.10;1.42;;;;;;;;;;5048000;28;20029;-76
2022/07/21 14:08:08;;;;;;;1.38;1.27;;;;;;;;;;5047422;28;20036;-76
2022/07/21 14:10:33;;;;;;;1.40;1.10;;;;;;;;;;5046363;28;20069;-78
2022/07/21 14:12:59;;;;;;;2.28;1.20;;;;;;;;;;5046498;28;20037;-75
2022/07/21 14:15:25;;;;;;;3.17;1.75;;;;;;;;;;5047895;28;20065;-75
2022/07/21 14:17:50;;;;;;;1.33;1.23;;;;;;;;;;5050883;28;20204;-75
2022/07/21 14:20:16;;;;;;;2.92;1.63;;;;;;;;;;5051089;28;20054;-76
2022/07/21 14:22:41;;;;;;;2.35;1.73;;;;;;;;;;5041065;28;20028;-75
2022/07/21 14:25:19;;;;;;;2.50;1.90;;;;;;;;;;5042542;28;20025;-76
2022/07/21 14:27:46;;;;;;;2.13;1.53;;;;;;;;;;5044081;28;20116;-76
2022/07/21 14:30:12;;;;;;;1.95;1.42;;;;;;;;;;5037887;28;20061;-74
2022/07/21 14:32:38;;;;;;;2.45;1.70;;;;;;;;;;5053147;28;20122;-75
2022/07/21 14:35:04;;;;;;;23.90;2.40;;;;;;;;;;5067386;28;20090;-76
2022/07/21 14:37:29;;;;;;;1.27;1.02;;;;;;;;;;5056390;28;20128;-75
2022/07/21 14:39:55;;;;;;;0.82;0.82;;;;;;;;;;5053237;28;20104;-74
2022/07/21 14:42:23;;;;;;;2.35;1.77;;;;;;;;;;5054109;28;20043;-76
2022/07/21 14:44:49;;;;;;;2.43;1.83;;;;;;;;;;5052061;28;20483;-75
2022/07/21 14:47:14;;;;;;;2.65;1.77;;;;;;;;;;5047722;28;20131;-76